createdAt,value
2022-12-19T00:00:49.760Z,-3.35
2022-12-19T00:03:17.738Z,-3.36
2022-12-19T00:05:45.337Z,-3.37
2022-12-19T00:08:18.045Z,-3.44
2022-12-19T00:10:57.294Z,-3.43
2022-12-19T00:13:25.663Z,-3.43
2022-12-19T00:15:53.877Z,-3.46
2022-12-19T00:18:22.095Z,-3.35
2022-12-19T00:21:05.123Z,-3.30
2022-12-19T00:23:34.806Z,-3.26
2022-12-19T00:26:14.120Z,-3.23
2022-12-19T00:28:45.659Z,-3.33
2022-12-19T00:31:15.764Z,-3.48
2022-12-19T00:33:46.064Z,-3.60
2022-12-19T00:36:22.590Z,-3.73
2022-12-19T00:38:53.159Z,-3.74
2022-12-19T00:41:28.577Z,-3.70
2022-12-19T00:44:10.262Z,-3.75
2022-12-19T00:46:38.206Z,-3.85
2022-12-19T00:49:07.329Z,-3.94
2022-12-19T00:51:37.566Z,-3.99
2022-12-19T00:54:10.788Z,-3.99
2022-12-19T00:56:39.442Z,-4.02
2022-12-19T00:59:10.637Z,-4.03
2022-12-19T01:01:41.826Z,-3.99
2022-12-19T01:04:30.670Z,-4.05
2022-12-19T01:07:02.587Z,-4.01
2022-12-19T01:09:36.686Z,-4.05
2022-12-19T01:12:25.417Z,-4.10
2022-12-19T01:15:04.536Z,-4.16
2022-12-19T01:17:43.404Z,-4.20
2022-12-19T01:20:19.086Z,-4.16
2022-12-19T01:22:59.917Z,-4.17
2022-12-19T01:25:28.654Z,-4.20
2022-12-19T01:27:57.492Z,-4.13
2022-12-19T01:30:26.871Z,-4.09
2022-12-19T01:32:58.036Z,-4.10
2022-12-19T01:35:28.927Z,-4.15
2022-12-19T01:38:07.919Z,-4.19
2022-12-19T01:40:37.607Z,-4.15
2022-12-19T01:43:06.708Z,-4.15
2022-12-19T01:45:43.584Z,-4.23
2022-12-19T01:48:20.932Z,-4.23
2022-12-19T01:51:01.120Z,-4.26
2022-12-19T01:53:57.529Z,-4.24
2022-12-19T01:56:31.860Z,-4.29
2022-12-19T01:59:08.607Z,-4.30
2022-12-19T02:01:51.641Z,-4.29
2022-12-19T02:04:30.279Z,-4.20
2022-12-19T02:07:14.998Z,-4.15
2022-12-19T02:09:56.799Z,-4.09
2022-12-19T02:12:36.826Z,-4.03
2022-12-19T02:15:07.432Z,-4.03
2022-12-19T02:17:53.655Z,-3.99
2022-12-19T02:20:52.442Z,-4.01
2022-12-19T02:23:42.747Z,-4.06
2022-12-19T02:26:45.406Z,-4.10
2022-12-19T02:29:50.890Z,-4.15
2022-12-19T02:33:17.402Z,-4.17
2022-12-19T02:35:58.282Z,-4.22
2022-12-19T02:38:54.132Z,-4.23
2022-12-19T02:41:57.241Z,-4.27
2022-12-19T02:44:39.295Z,-4.23
2022-12-19T02:47:09.150Z,-4.26
2022-12-19T02:49:39.427Z,-4.30
2022-12-19T02:52:30.896Z,-4.27
2022-12-19T02:55:05.210Z,-4.27
2022-12-19T02:57:55.345Z,-4.32
2022-12-19T03:00:27.636Z,-4.33
2022-12-19T03:03:37.561Z,-4.39
2022-12-19T03:06:25.419Z,-4.42
2022-12-19T03:09:20.019Z,-4.33
2022-12-19T03:11:58.710Z,-4.29
2022-12-19T03:14:29.635Z,-4.26
2022-12-19T03:17:02.360Z,-4.19
2022-12-19T03:19:30.547Z,-4.13
2022-12-19T03:21:58.255Z,-4.06
2022-12-19T03:24:27.246Z,-3.99
2022-12-19T03:27:08.178Z,-3.99
2022-12-19T03:29:53.593Z,-3.98
2022-12-19T03:32:24.606Z,-4.01
2022-12-19T03:35:05.899Z,-4.07
2022-12-19T03:37:38.762Z,-4.10
2022-12-19T03:40:15.145Z,-4.15
2022-12-19T03:43:05.591Z,-4.22
2022-12-19T03:46:17.599Z,-4.20
2022-12-19T03:48:54.066Z,-4.23
2022-12-19T03:51:49.835Z,-4.27
2022-12-19T03:54:25.322Z,-4.37
2022-12-19T03:57:11.086Z,-4.43
2022-12-19T04:00:06.343Z,-4.47
2022-12-19T04:02:44.916Z,-4.51
2022-12-19T04:05:22.038Z,-4.53
2022-12-19T04:07:52.947Z,-4.58
2022-12-19T04:10:25.179Z,-4.54
2022-12-19T04:13:05.527Z,-4.57
2022-12-19T04:15:49.585Z,-4.56
2022-12-19T04:18:19.935Z,-4.46
2022-12-19T04:21:09.056Z,-4.60
2022-12-19T04:23:53.994Z,-4.68
2022-12-19T04:26:24.566Z,-4.78
2022-12-19T04:28:58.944Z,-4.81
2022-12-19T04:31:26.737Z,-4.81
2022-12-19T04:33:54.350Z,-4.74
2022-12-19T04:36:22.245Z,-4.68
2022-12-19T04:38:50.035Z,-4.70
2022-12-19T04:41:17.598Z,-4.71
2022-12-19T04:43:45.214Z,-4.67
2022-12-19T04:46:12.976Z,-4.63
2022-12-19T04:48:40.613Z,-4.71
2022-12-19T04:51:08.460Z,-4.78
2022-12-19T04:53:36.485Z,-4.72
2022-12-19T04:56:06.848Z,-4.87
2022-12-19T04:58:35.422Z,-5.01
2022-12-19T05:01:06.403Z,-5.13
2022-12-19T05:03:35.014Z,-5.17
2022-12-19T05:06:10.715Z,-5.29
2022-12-19T05:08:41.654Z,-5.32
2022-12-19T05:11:17.515Z,-5.39
2022-12-19T05:13:47.833Z,-5.41
2022-12-19T05:16:16.076Z,-5.47
2022-12-19T05:18:44.594Z,-5.53
2022-12-19T05:21:13.307Z,-5.51
2022-12-19T05:23:41.993Z,-5.50
2022-12-19T05:26:13.165Z,-5.39
2022-12-19T05:28:41.100Z,-5.44
2022-12-19T05:31:13.454Z,-5.43
2022-12-19T05:33:42.795Z,-5.32
2022-12-19T05:36:12.246Z,-5.47
2022-12-19T05:38:40.371Z,-5.56
2022-12-19T05:41:11.026Z,-5.63
2022-12-19T05:43:38.901Z,-5.66
2022-12-19T05:46:08.337Z,-5.64
2022-12-19T05:48:36.713Z,-5.70
2022-12-19T05:51:05.099Z,-5.70
2022-12-19T05:53:36.125Z,-5.81
2022-12-19T05:56:10.018Z,-5.80
2022-12-19T05:58:40.243Z,-5.77
2022-12-19T06:01:14.283Z,-5.74
2022-12-19T06:03:43.136Z,-5.71
2022-12-19T06:06:23.813Z,-5.61
2022-12-19T06:08:57.548Z,-5.43
2022-12-19T06:11:25.833Z,-5.39
2022-12-19T06:13:53.597Z,-5.39
2022-12-19T06:16:23.116Z,-5.40
2022-12-19T06:18:51.062Z,-5.41
2022-12-19T06:21:22.042Z,-5.37
2022-12-19T06:23:50.432Z,-5.26
2022-12-19T06:26:23.055Z,-5.09
2022-12-19T06:28:52.749Z,-4.82
2022-12-19T06:31:23.016Z,-4.34
2022-12-19T06:33:51.041Z,-3.74
2022-12-19T06:36:21.017Z,-3.21
2022-12-19T06:38:49.707Z,-2.88
2022-12-19T06:41:36.891Z,-2.79
2022-12-19T06:44:08.507Z,-2.62
2022-12-19T06:46:37.695Z,-2.43
2022-12-19T06:49:06.390Z,-2.14
2022-12-19T06:51:34.462Z,-1.77
2022-12-19T06:54:02.009Z,-1.36
2022-12-19T06:56:35.988Z,-0.78
2022-12-19T06:59:04.965Z,-0.54
2022-12-19T07:01:41.987Z,-0.30
2022-12-19T07:04:21.488Z,0.56
2022-12-19T07:06:49.530Z,1.08
2022-12-19T07:09:18.255Z,1.96
2022-12-19T07:11:46.358Z,2.88
2022-12-19T07:14:14.346Z,3.54
2022-12-19T07:16:42.718Z,4.27
2022-12-19T07:19:10.745Z,4.95
2022-12-19T07:21:39.497Z,5.88
2022-12-19T07:24:08.865Z,6.51
2022-12-19T07:26:37.035Z,6.90
2022-12-19T07:29:05.571Z,6.51
2022-12-19T07:31:35.927Z,6.77
2022-12-19T07:34:04.132Z,6.71
2022-12-19T07:36:31.830Z,6.66
2022-12-19T07:38:59.442Z,6.95
2022-12-19T07:41:27.223Z,6.94
2022-12-19T07:43:54.986Z,7.40
2022-12-19T07:46:22.578Z,8.49
2022-12-19T07:48:50.762Z,8.08
2022-12-19T07:51:18.256Z,7.07
2022-12-19T07:53:45.981Z,6.78
2022-12-19T07:56:13.548Z,6.92
2022-12-19T07:58:41.722Z,8.69
2022-12-19T08:01:09.430Z,10.10
2022-12-19T08:03:37.043Z,10.62
2022-12-19T08:06:07.428Z,9.78
2022-12-19T08:08:35.620Z,9.85
2022-12-19T08:11:30.046Z,11.10
2022-12-19T08:13:58.498Z,10.86
2022-12-19T08:16:28.132Z,11.34
2022-12-19T08:18:55.884Z,10.95
2022-12-19T08:21:25.200Z,11.24
2022-12-19T08:23:53.489Z,13.35
2022-12-19T08:26:26.741Z,14.05
2022-12-19T08:28:57.443Z,15.39
2022-12-19T08:31:28.159Z,14.01
2022-12-19T08:33:57.330Z,11.93
2022-12-19T08:36:25.365Z,9.90
2022-12-19T08:38:54.285Z,9.08
2022-12-19T08:41:21.730Z,9.38
2022-12-19T08:43:54.021Z,8.49
2022-12-19T08:46:23.080Z,8.49
2022-12-19T08:48:51.626Z,9.03
2022-12-19T08:51:20.133Z,9.42
2022-12-19T08:53:48.276Z,10.06
2022-12-19T08:56:22.240Z,9.62
2022-12-19T08:58:52.415Z,10.14
2022-12-19T09:01:24.226Z,10.07
2022-12-19T09:04:00.555Z,9.43
2022-12-19T09:06:40.574Z,9.31
2022-12-19T09:09:08.310Z,10.62
2022-12-19T09:11:36.213Z,11.89
2022-12-19T09:14:20.499Z,11.33
2022-12-19T09:16:49.431Z,11.26
2022-12-19T09:19:17.163Z,12.41
2022-12-19T09:21:45.068Z,13.26
2022-12-19T09:24:12.793Z,12.47
2022-12-19T09:26:42.827Z,14.46
2022-12-19T09:29:19.573Z,12.88
2022-12-19T09:31:55.943Z,15.11
2022-12-19T09:34:37.871Z,14.05
2022-12-19T09:37:10.413Z,10.82
2022-12-19T09:39:47.196Z,11.47
2022-12-19T09:42:57.014Z,10.62
2022-12-19T09:45:43.907Z,8.53
2022-12-19T09:48:23.636Z,7.35
2022-12-19T09:51:09.577Z,6.60
2022-12-19T09:54:12.265Z,4.96
2022-12-19T09:56:45.520Z,4.21
2022-12-19T09:59:39.848Z,4.30
2022-12-19T10:02:46.601Z,3.69
2022-12-19T10:06:24.533Z,3.71
2022-12-19T10:08:55.386Z,3.96
2022-12-19T10:12:42.462Z,3.92
2022-12-19T10:15:26.158Z,4.43
2022-12-19T10:18:56.086Z,5.82
2022-12-19T10:22:17.900Z,6.74
2022-12-19T10:25:20.316Z,6.78
2022-12-19T10:28:00.520Z,6.91
2022-12-19T10:30:38.168Z,6.76
2022-12-19T10:33:31.282Z,6.08
2022-12-19T10:36:03.098Z,5.33
2022-12-19T10:38:39.454Z,5.63
2022-12-19T10:41:24.152Z,6.42
2022-12-19T10:43:52.064Z,5.64
2022-12-19T10:46:40.676Z,6.32
2022-12-19T10:49:25.325Z,6.18
2022-12-19T10:52:08.159Z,5.84
2022-12-19T10:54:43.772Z,5.97
2022-12-19T10:57:30.063Z,5.92
2022-12-19T11:00:05.642Z,6.18
2022-12-19T11:02:39.871Z,6.21
2022-12-19T11:05:57.141Z,5.18
2022-12-19T11:08:35.570Z,4.86
2022-12-19T11:13:39.958Z,5.20
2022-12-19T11:19:19.780Z,5.42
2022-12-19T11:21:11.155Z,5.53
2022-12-19T11:29:19.746Z,4.48
2022-12-19T11:29:30.188Z,4.92
2022-12-19T11:30:43.089Z,4.89
2022-12-19T11:30:47.277Z,4.86
2022-12-19T11:34:22.671Z,4.58
2022-12-19T11:37:13.534Z,5.11
2022-12-19T11:39:48.816Z,4.95
2022-12-19T11:42:35.349Z,5.02
2022-12-19T11:45:43.705Z,5.04
2022-12-19T11:48:31.405Z,5.40
2022-12-19T11:51:32.173Z,5.08
2022-12-19T11:54:21.811Z,4.84
2022-12-19T11:56:49.370Z,5.12
2022-12-19T11:59:36.773Z,5.18
2022-12-19T12:02:41.115Z,5.33
2022-12-19T12:05:32.027Z,4.48
2022-12-19T12:10:41.873Z,4.43
2022-12-19T12:18:29.491Z,4.58
2022-12-19T12:22:09.821Z,4.54
2022-12-19T12:31:01.217Z,4.85
2022-12-19T12:31:42.784Z,4.81
2022-12-19T12:31:45.378Z,4.98
2022-12-19T12:31:51.154Z,4.91
2022-12-19T12:36:53.041Z,4.98
2022-12-19T12:38:32.550Z,4.91
2022-12-19T12:42:05.952Z,4.77
2022-12-19T12:44:44.798Z,4.60
2022-12-19T12:47:19.147Z,4.53
2022-12-19T12:49:55.939Z,4.51
2022-12-19T12:53:02.920Z,4.36
2022-12-19T12:55:43.793Z,4.30
2022-12-19T12:58:53.957Z,4.06
2022-12-19T13:01:40.184Z,4.27
2022-12-19T13:04:13.878Z,4.09
2022-12-19T13:06:51.476Z,4.00
2022-12-19T13:09:30.970Z,4.34
2022-12-19T13:12:38.623Z,4.33
2022-12-19T13:15:22.231Z,4.32
2022-12-19T13:17:49.881Z,4.23
2022-12-19T13:20:18.292Z,4.37
2022-12-19T13:23:05.360Z,4.20
2022-12-19T13:25:36.717Z,3.96
2022-12-19T13:28:04.233Z,3.78
2022-12-19T13:30:50.494Z,3.55
2022-12-19T13:33:21.383Z,3.54
2022-12-19T13:36:48.519Z,3.60
2022-12-19T13:39:54.510Z,3.69
2022-12-19T13:42:05.419Z,3.47
2022-12-19T13:44:41.291Z,3.47
2022-12-19T13:47:16.609Z,3.48
2022-12-19T13:49:48.608Z,3.34
2022-12-19T13:52:18.335Z,3.30
2022-12-19T13:54:59.186Z,3.35
2022-12-19T13:57:31.360Z,3.19
2022-12-19T14:00:06.750Z,3.14
2022-12-19T14:02:43.979Z,3.00
2022-12-19T14:06:09.671Z,2.83
2022-12-19T14:08:28.050Z,2.62
2022-12-19T14:11:44.965Z,2.55
2022-12-19T14:14:25.789Z,2.41
2022-12-19T14:17:08.131Z,2.30
2022-12-19T14:19:53.418Z,2.18
2022-12-19T14:22:35.794Z,2.14
2022-12-19T14:26:14.490Z,2.05
2022-12-19T14:28:19.134Z,2.00
2022-12-19T14:31:02.970Z,2.02
2022-12-19T14:36:52.150Z,1.83
2022-12-19T14:39:29.664Z,1.80
2022-12-19T14:43:56.365Z,1.72
2022-12-19T14:52:51.390Z,1.65
2022-12-19T14:54:14.514Z,1.56
2022-12-19T14:54:37.068Z,1.45
2022-12-19T14:57:25.304Z,1.37
2022-12-19T15:01:07.625Z,1.28
2022-12-19T15:03:30.394Z,1.17
2022-12-19T15:07:09.976Z,1.13
2022-12-19T15:11:00.283Z,1.03
2022-12-19T15:14:50.492Z,0.89
2022-12-19T15:15:48.375Z,0.77
2022-12-19T15:18:26.739Z,0.69
2022-12-19T15:20:59.279Z,0.61
2022-12-19T15:23:28.309Z,0.52
2022-12-19T15:26:03.893Z,0.46
2022-12-19T15:28:41.671Z,0.35
2022-12-19T15:31:30.283Z,0.22
2022-12-19T15:36:46.501Z,0.00
2022-12-19T15:39:15.327Z,-0.13
2022-12-19T15:41:45.057Z,-0.17
2022-12-19T15:44:45.834Z,-0.21
2022-12-19T15:47:31.575Z,-0.26
2022-12-19T15:50:02.897Z,-0.31
2022-12-19T15:52:31.027Z,-0.33
2022-12-19T15:54:58.588Z,-0.35
2022-12-19T15:57:36.063Z,-0.41
2022-12-19T16:00:27.807Z,-0.40
2022-12-19T16:03:23.348Z,-0.34
2022-12-19T16:05:45.935Z,-0.27
2022-12-19T16:08:20.553Z,-0.28
2022-12-19T16:10:59.375Z,-0.24
2022-12-19T16:13:36.173Z,-0.28
2022-12-19T16:16:11.227Z,-0.37
2022-12-19T16:18:47.257Z,-0.44
2022-12-19T16:21:31.695Z,-0.48
2022-12-19T16:24:01.748Z,-0.44
2022-12-19T16:26:34.608Z,-0.50
2022-12-19T16:29:02.829Z,-0.47
2022-12-19T16:31:30.602Z,-0.42
2022-12-19T16:33:58.306Z,-0.47
2022-12-19T16:36:25.875Z,-0.44
2022-12-19T16:38:53.439Z,-0.38
2022-12-19T16:41:25.881Z,-0.35
2022-12-19T16:43:53.457Z,-0.42
2022-12-19T16:46:23.822Z,-0.50
2022-12-19T16:48:51.553Z,-0.50
2022-12-19T16:51:25.645Z,-0.50
2022-12-19T16:53:57.709Z,-0.40
2022-12-19T16:56:34.717Z,-0.33
2022-12-19T16:59:10.244Z,-0.30
2022-12-19T17:01:37.955Z,-0.27
2022-12-19T17:04:05.892Z,-0.30
2022-12-19T17:06:33.543Z,-0.33
2022-12-19T17:09:01.243Z,-0.28
2022-12-19T17:11:30.153Z,-0.30
2022-12-19T17:14:08.847Z,-0.27
2022-12-19T17:16:38.341Z,-0.24
2022-12-19T17:19:06.136Z,-0.23
2022-12-19T17:21:33.773Z,-0.23
2022-12-19T17:24:01.413Z,-0.21
2022-12-19T17:26:28.945Z,-0.20
2022-12-19T17:28:56.656Z,-0.24
2022-12-19T17:31:28.750Z,-0.33
2022-12-19T17:33:58.492Z,-0.37
2022-12-19T17:36:36.514Z,-0.38
2022-12-19T17:39:24.542Z,-0.27
2022-12-19T17:41:54.206Z,-0.14
2022-12-19T17:44:21.915Z,0.13
2022-12-19T17:46:49.727Z,0.04
2022-12-19T17:49:30.074Z,0.04
2022-12-19T17:52:00.008Z,0.19
2022-12-19T17:54:27.765Z,0.22
2022-12-19T17:56:55.775Z,0.03
2022-12-19T17:59:23.294Z,0.08
2022-12-19T18:01:50.961Z,0.26
2022-12-19T18:04:21.085Z,0.63
2022-12-19T18:06:49.431Z,0.53
2022-12-19T18:09:23.681Z,0.79
2022-12-19T18:11:52.858Z,0.76
2022-12-19T18:14:20.554Z,0.70
2022-12-19T18:16:51.035Z,0.65
2022-12-19T18:19:25.311Z,0.66
2022-12-19T18:21:52.866Z,0.69
2022-12-19T18:24:20.406Z,0.77
2022-12-19T18:26:48.164Z,0.66
2022-12-19T18:29:16.728Z,0.56
2022-12-19T18:31:50.875Z,0.52
2022-12-19T18:34:25.944Z,0.59
2022-12-19T18:36:54.137Z,0.48
2022-12-19T18:39:27.228Z,0.38
2022-12-19T18:41:55.405Z,0.28
2022-12-19T18:44:23.484Z,0.15
2022-12-19T18:46:52.801Z,0.18
2022-12-19T18:49:20.849Z,0.08
2022-12-19T18:51:48.929Z,-0.06
2022-12-19T18:54:20.951Z,-0.06
2022-12-19T18:56:49.999Z,-0.06
2022-12-19T18:59:17.799Z,-0.11
2022-12-19T19:01:47.548Z,-0.23
2022-12-19T19:04:18.281Z,-0.27
2022-12-19T19:06:51.486Z,-0.21
2022-12-19T19:09:21.851Z,-0.13
2022-12-19T19:12:09.387Z,-0.13
2022-12-19T19:14:37.259Z,-0.16
2022-12-19T19:17:07.023Z,-0.20
2022-12-19T19:19:34.970Z,-0.37
2022-12-19T19:22:03.794Z,-0.27
2022-12-19T19:24:31.638Z,-0.34
2022-12-19T19:26:59.391Z,-0.26
2022-12-19T19:29:27.199Z,-0.27
2022-12-19T19:31:54.904Z,-0.24
2022-12-19T19:34:32.085Z,-0.24
2022-12-19T19:37:05.957Z,-0.02
2022-12-19T19:39:35.086Z,-0.16
2022-12-19T19:42:04.277Z,0.08
2022-12-19T19:44:32.482Z,0.19
2022-12-19T19:47:00.470Z,0.19
2022-12-19T19:49:28.299Z,0.35
2022-12-19T19:52:02.278Z,0.29
2022-12-19T19:54:31.637Z,0.24
2022-12-19T19:56:59.298Z,0.07
2022-12-19T19:59:31.605Z,-0.11
2022-12-19T20:01:59.696Z,-0.18
2022-12-19T20:04:27.517Z,-0.37
2022-12-19T20:06:55.292Z,-0.40
2022-12-19T20:09:22.987Z,-0.61
2022-12-19T20:11:50.747Z,-0.71
2022-12-19T20:14:18.330Z,-0.62
2022-12-19T20:16:47.287Z,-0.41
2022-12-19T20:19:15.774Z,-0.31
2022-12-19T20:21:45.229Z,-0.26
2022-12-19T20:24:12.853Z,-0.26
2022-12-19T20:26:40.741Z,-0.38
2022-12-19T20:29:11.472Z,-0.58
2022-12-19T20:31:39.733Z,-0.57
2022-12-19T20:34:08.143Z,-0.85
2022-12-19T20:36:36.714Z,-1.04
2022-12-19T20:39:05.584Z,-1.26
2022-12-19T20:41:33.703Z,-1.29
2022-12-19T20:44:01.916Z,-1.07
2022-12-19T20:46:29.937Z,-0.92
2022-12-19T20:48:58.489Z,-0.82
2022-12-19T20:51:27.109Z,-0.79
2022-12-19T20:53:54.983Z,-0.72
2022-12-19T20:56:26.095Z,-0.53
2022-12-19T20:58:53.863Z,-0.47
2022-12-19T21:01:24.507Z,-0.50
2022-12-19T21:03:53.061Z,-0.41
2022-12-19T21:06:22.368Z,-0.42
2022-12-19T21:08:50.932Z,-0.30
2022-12-19T21:11:18.647Z,-0.35
2022-12-19T21:13:46.353Z,-0.38
2022-12-19T21:16:18.427Z,-0.41
2022-12-19T21:18:47.945Z,-0.38
2022-12-19T21:21:19.903Z,-0.54
2022-12-19T21:23:48.325Z,-0.71
2022-12-19T21:26:16.657Z,-0.88
2022-12-19T21:28:44.707Z,-1.17
2022-12-19T21:31:17.160Z,-1.43
2022-12-19T21:33:46.830Z,-1.58
2022-12-19T21:36:21.146Z,-1.79
2022-12-19T21:38:52.666Z,-1.82
2022-12-19T21:41:21.327Z,-1.77
2022-12-19T21:43:53.592Z,-1.75
2022-12-19T21:46:27.626Z,-1.55
2022-12-19T21:48:57.873Z,-1.36
2022-12-19T21:51:28.959Z,-1.23
2022-12-19T21:54:03.213Z,-0.99
2022-12-19T21:56:40.048Z,-0.91
2022-12-19T21:59:14.977Z,-0.89
2022-12-19T22:01:47.888Z,-0.86
2022-12-19T22:04:21.278Z,-0.92
2022-12-19T22:06:51.110Z,-1.14
2022-12-19T22:09:22.621Z,-1.34
2022-12-19T22:11:50.617Z,-1.43
2022-12-19T22:14:19.575Z,-1.37
2022-12-19T22:16:47.295Z,-1.39
2022-12-19T22:19:17.752Z,-1.37
2022-12-19T22:21:46.937Z,-1.44
2022-12-19T22:24:16.664Z,-1.52
2022-12-19T22:26:45.061Z,-1.55
2022-12-19T22:29:15.820Z,-1.61
2022-12-19T22:31:44.928Z,-1.68
2022-12-19T22:34:18.011Z,-1.47
2022-12-19T22:36:46.441Z,-1.20
2022-12-19T22:39:19.939Z,-1.33
2022-12-19T22:41:48.374Z,-1.43
2022-12-19T22:44:20.575Z,-0.93
2022-12-19T22:46:49.614Z,-0.65
2022-12-19T22:49:17.735Z,-0.42
2022-12-19T22:51:46.365Z,-0.48
2022-12-19T22:54:13.940Z,-0.57
2022-12-19T22:56:42.895Z,-0.57
2022-12-19T22:59:13.610Z,-0.66
2022-12-19T23:01:43.589Z,-0.95
2022-12-19T23:04:15.646Z,-1.21
2022-12-19T23:06:44.690Z,-1.40
2022-12-19T23:09:16.915Z,-1.48
2022-12-19T23:11:48.895Z,-1.67
2022-12-19T23:14:19.730Z,-1.81
2022-12-19T23:16:48.460Z,-2.07
2022-12-19T23:19:17.558Z,-2.29
2022-12-19T23:21:45.884Z,-2.46
2022-12-19T23:24:14.047Z,-2.53
2022-12-19T23:26:41.995Z,-2.54
2022-12-19T23:29:13.760Z,-2.58
2022-12-19T23:31:46.204Z,-2.56
2022-12-19T23:34:15.590Z,-2.53
2022-12-19T23:39:31.148Z,-2.50
2022-12-19T23:41:58.758Z,-2.50
2022-12-19T23:44:26.867Z,-2.46
2022-12-19T23:47:02.338Z,-2.40
2022-12-19T23:49:32.343Z,-2.46
2022-12-19T23:51:59.927Z,-2.44
2022-12-19T23:54:27.593Z,-2.46
2022-12-19T23:56:55.241Z,-2.46
2022-12-19T23:59:23.033Z,-2.48
